createdAt,value
2018-07-09T00:00:03.131Z,1007.6
2018-07-09T00:01:04.088Z,1007.6
2018-07-09T00:02:04.823Z,1007.6
2018-07-09T00:03:05.558Z,1007.6
2018-07-09T00:04:06.266Z,1007.6
2018-07-09T00:05:06.993Z,1007.6
2018-07-09T00:06:07.710Z,1007.6
2018-07-09T00:07:08.427Z,1007.6
2018-07-09T00:08:09.390Z,1007.6
2018-07-09T00:09:10.118Z,1007.6
2018-07-09T00:10:10.840Z,1007.6
2018-07-09T00:11:11.558Z,1007.6
2018-07-09T00:12:12.680Z,1007.6
2018-07-09T00:13:13.398Z,1007.6
2018-07-09T00:14:14.125Z,1007.6
2018-07-09T00:15:14.838Z,1007.6
2018-07-09T00:16:15.575Z,1007.7
2018-07-09T00:17:16.295Z,1007.7
2018-07-09T00:18:17.013Z,1007.7
2018-07-09T00:19:17.987Z,1007.7
2018-07-09T00:20:19.106Z,1007.6
2018-07-09T00:21:19.820Z,1007.6
2018-07-09T00:22:20.788Z,1007.7
2018-07-09T00:23:21.756Z,1007.7
2018-07-09T00:24:22.469Z,1007.7
2018-07-09T00:25:23.190Z,1007.7
2018-07-09T00:26:23.919Z,1007.7
2018-07-09T00:27:24.641Z,1007.7
2018-07-09T00:28:25.368Z,1007.8
2018-07-09T00:29:26.095Z,1007.7
2018-07-09T00:30:26.819Z,1007.7
2018-07-09T00:31:27.554Z,1007.7
2018-07-09T00:32:28.269Z,1007.6
2018-07-09T00:33:29.001Z,1007.6
2018-07-09T00:34:29.717Z,1007.7
2018-07-09T00:35:30.691Z,1007.7
2018-07-09T00:36:31.660Z,1007.7
2018-07-09T00:37:32.381Z,1007.7
2018-07-09T00:38:33.344Z,1007.7
2018-07-09T00:39:34.306Z,1007.7
2018-07-09T00:40:35.268Z,1007.7
2018-07-09T00:41:35.979Z,1007.6
2018-07-09T00:42:36.693Z,1007.6
2018-07-09T00:43:37.405Z,1007.6
2018-07-09T00:44:38.125Z,1007.6
2018-07-09T00:45:38.849Z,1007.7
2018-07-09T00:46:39.574Z,1007.7
2018-07-09T00:47:40.291Z,1007.7
2018-07-09T00:48:41.021Z,1007.6
2018-07-09T00:49:42.135Z,1007.6
2018-07-09T00:50:42.848Z,1007.6
2018-07-09T00:51:43.568Z,1007.6
2018-07-09T00:52:44.289Z,1007.6
2018-07-09T00:53:45.012Z,1007.6
2018-07-09T00:54:45.901Z,1007.6
2018-07-09T00:55:46.619Z,1007.6
2018-07-09T00:56:47.342Z,1007.6
2018-07-09T00:57:48.311Z,1007.6
2018-07-09T00:58:49.026Z,1007.6
2018-07-09T00:59:49.747Z,1007.6
2018-07-09T01:00:50.473Z,1007.7
2018-07-09T01:01:51.208Z,1007.7
2018-07-09T01:02:51.935Z,1007.7
2018-07-09T01:03:52.664Z,1007.7
2018-07-09T01:04:53.392Z,1007.7
2018-07-09T01:05:54.275Z,1007.7
2018-07-09T01:06:54.984Z,1007.6
2018-07-09T01:07:55.696Z,1007.6
2018-07-09T01:08:56.420Z,1007.7
2018-07-09T01:09:57.132Z,1007.6
2018-07-09T01:10:57.919Z,1007.6
2018-07-09T01:11:58.650Z,1007.6
2018-07-09T01:12:59.365Z,1007.6
2018-07-09T01:14:00.084Z,1007.6
2018-07-09T01:15:01.058Z,1007.6
2018-07-09T01:16:01.784Z,1007.6
2018-07-09T01:17:02.751Z,1007.5
2018-07-09T01:18:03.464Z,1007.5
2018-07-09T01:19:04.185Z,1007.5
2018-07-09T01:20:04.910Z,1007.5
2018-07-09T01:21:05.630Z,1007.5
2018-07-09T01:22:06.406Z,1007.5
2018-07-09T01:23:07.123Z,1007.5
2018-07-09T01:24:07.846Z,1007.5
2018-07-09T01:25:08.567Z,1007.5
2018-07-09T01:26:09.283Z,1007.5
2018-07-09T01:27:10.098Z,1007.5
2018-07-09T01:28:10.822Z,1007.5
2018-07-09T01:29:11.545Z,1007.5
2018-07-09T01:30:12.266Z,1007.5
2018-07-09T01:31:12.997Z,1007.5
2018-07-09T01:32:13.701Z,1007.5
2018-07-09T01:33:14.677Z,1007.5
2018-07-09T01:34:15.394Z,1007.5
2018-07-09T01:35:16.109Z,1007.5
2018-07-09T01:36:16.823Z,1007.5
2018-07-09T01:37:17.599Z,1007.4
2018-07-09T01:38:18.312Z,1007.5
2018-07-09T01:39:19.037Z,1007.5
2018-07-09T01:40:19.785Z,1007.5
2018-07-09T01:41:20.512Z,1007.4
2018-07-09T01:42:21.228Z,1007.4
2018-07-09T01:43:22.597Z,1007.4
2018-07-09T01:44:23.319Z,1007.4
2018-07-09T01:45:24.287Z,1007.4
2018-07-09T01:46:25.015Z,1007.4
2018-07-09T01:47:25.730Z,1007.4
2018-07-09T01:48:26.507Z,1007.4
2018-07-09T01:49:27.239Z,1007.4
2018-07-09T01:50:27.955Z,1007.4
2018-07-09T01:51:28.683Z,1007.4
2018-07-09T01:52:29.403Z,1007.4
2018-07-09T01:53:30.775Z,1007.4
2018-07-09T01:54:31.482Z,1007.4
2018-07-09T01:55:32.189Z,1007.4
2018-07-09T01:56:32.913Z,1007.5
2018-07-09T01:57:33.627Z,1007.5
2018-07-09T01:58:34.344Z,1007.5
2018-07-09T01:59:35.319Z,1007.5
2018-07-09T02:00:36.034Z,1007.5
2018-07-09T02:01:36.764Z,1007.5
2018-07-09T02:02:37.485Z,1007.5
2018-07-09T02:03:38.197Z,1007.5
2018-07-09T02:04:38.931Z,1007.5
2018-07-09T02:05:39.643Z,1007.5
2018-07-09T02:06:40.358Z,1007.4
2018-07-09T02:07:41.102Z,1007.4
2018-07-09T02:08:41.809Z,1007.4
2018-07-09T02:09:42.539Z,1007.4
2018-07-09T02:10:43.255Z,1007.5
2018-07-09T02:11:43.971Z,1007.4
2018-07-09T02:12:44.727Z,1007.4
2018-07-09T02:13:45.447Z,1007.4
2018-07-09T02:14:46.174Z,1007.4
2018-07-09T02:15:46.896Z,1007.4
2018-07-09T02:16:47.935Z,1007.5
2018-07-09T02:17:48.661Z,1007.4
2018-07-09T02:18:49.379Z,1007.4
2018-07-09T02:19:50.089Z,1007.4
2018-07-09T02:20:50.811Z,1007.4
2018-07-09T02:21:51.531Z,1007.4
2018-07-09T02:22:52.250Z,1007.3
2018-07-09T02:23:52.979Z,1007.4
2018-07-09T02:24:53.687Z,1007.4
2018-07-09T02:25:54.401Z,1007.4
2018-07-09T02:26:55.229Z,1007.4
2018-07-09T02:27:55.939Z,1007.4
2018-07-09T02:28:56.674Z,1007.4
2018-07-09T02:29:57.386Z,1007.4
2018-07-09T02:30:58.111Z,1007.3
2018-07-09T02:31:58.934Z,1007.4
2018-07-09T02:32:59.908Z,1007.3
2018-07-09T02:34:00.631Z,1007.4
2018-07-09T02:35:01.347Z,1007.4
2018-07-09T02:36:02.068Z,1007.4
2018-07-09T02:37:03.219Z,1007.4
2018-07-09T02:38:03.942Z,1007.4
2018-07-09T02:39:04.667Z,1007.4
2018-07-09T02:40:05.384Z,1007.4
2018-07-09T02:41:06.117Z,1007.4
2018-07-09T02:42:06.856Z,1007.4
2018-07-09T02:43:07.932Z,1007.4
2018-07-09T02:44:08.650Z,1007.5
2018-07-09T02:45:09.379Z,1007.4
2018-07-09T02:46:10.097Z,1007.4
2018-07-09T02:47:10.833Z,1007.4
2018-07-09T02:48:11.807Z,1007.4
2018-07-09T02:49:12.530Z,1007.4
2018-07-09T02:50:13.230Z,1007.4
2018-07-09T02:51:13.954Z,1007.4
2018-07-09T02:52:14.925Z,1007.4
2018-07-09T02:53:15.698Z,1007.4
2018-07-09T02:54:16.421Z,1007.4
2018-07-09T02:55:17.143Z,1007.4
2018-07-09T02:56:17.852Z,1007.3
2018-07-09T02:57:18.579Z,1007.3
2018-07-09T02:58:19.300Z,1007.3
2018-07-09T02:59:20.025Z,1007.3
2018-07-09T03:00:20.745Z,1007.3
2018-07-09T03:01:21.466Z,1007.4
2018-07-09T03:02:22.181Z,1007.4
2018-07-09T03:03:22.902Z,1007.5
2018-07-09T03:04:23.635Z,1007.5
2018-07-09T03:05:24.507Z,1007.5
2018-07-09T03:06:25.234Z,1007.5
2018-07-09T03:07:25.955Z,1007.5
2018-07-09T03:08:26.674Z,1007.5
2018-07-09T03:09:27.392Z,1007.5
2018-07-09T03:10:28.179Z,1007.6
2018-07-09T03:11:28.908Z,1007.6
2018-07-09T03:12:29.647Z,1007.5
2018-07-09T03:13:30.364Z,1007.6
2018-07-09T03:14:31.094Z,1007.5
2018-07-09T03:15:32.072Z,1007.5
2018-07-09T03:16:32.783Z,1007.6
2018-07-09T03:17:33.507Z,1007.6
2018-07-09T03:18:34.227Z,1007.6
2018-07-09T03:19:34.951Z,1007.5
2018-07-09T03:20:35.727Z,1007.5
2018-07-09T03:21:36.455Z,1007.6
2018-07-09T03:22:37.181Z,1007.6
2018-07-09T03:23:37.904Z,1007.6
2018-07-09T03:24:38.641Z,1007.6
2018-07-09T03:25:39.417Z,1007.6
2018-07-09T03:26:40.154Z,1007.6
2018-07-09T03:27:40.891Z,1007.6
2018-07-09T03:28:41.618Z,1007.6
2018-07-09T03:29:42.426Z,1007.5
2018-07-09T03:30:43.114Z,1007.5
2018-07-09T03:31:43.843Z,1007.5
2018-07-09T03:32:44.590Z,1007.6
2018-07-09T03:33:45.333Z,1007.6
2018-07-09T03:34:46.062Z,1007.6
2018-07-09T03:35:46.796Z,1007.6
2018-07-09T03:36:47.523Z,1007.6
2018-07-09T03:37:48.246Z,1007.6
2018-07-09T03:38:48.972Z,1007.6
2018-07-09T03:39:49.696Z,1007.6
2018-07-09T03:40:50.418Z,1007.6
2018-07-09T03:41:51.160Z,1007.7
2018-07-09T03:42:51.884Z,1007.7
2018-07-09T03:43:52.624Z,1007.7
2018-07-09T03:44:53.367Z,1007.7
2018-07-09T03:45:54.101Z,1007.7
2018-07-09T03:46:54.834Z,1007.7
2018-07-09T03:47:55.563Z,1007.7
2018-07-09T03:48:56.313Z,1007.7
2018-07-09T03:49:57.038Z,1007.7
2018-07-09T03:50:57.756Z,1007.7
2018-07-09T03:51:58.476Z,1007.7
2018-07-09T03:52:59.192Z,1007.7
2018-07-09T03:53:59.917Z,1007.7
2018-07-09T03:55:00.881Z,1007.7
2018-07-09T03:56:01.620Z,1007.7
2018-07-09T03:57:02.339Z,1007.7
2018-07-09T03:58:03.066Z,1007.7
2018-07-09T03:59:03.793Z,1007.7
2018-07-09T04:00:04.536Z,1007.6
2018-07-09T04:01:05.262Z,1007.6
2018-07-09T04:02:05.985Z,1007.6
2018-07-09T04:03:06.731Z,1007.7
2018-07-09T04:04:07.451Z,1007.7
2018-07-09T04:05:08.190Z,1007.7
2018-07-09T04:06:08.913Z,1007.7
2018-07-09T04:07:09.647Z,1007.7
2018-07-09T04:08:10.374Z,1007.7
2018-07-09T04:09:11.104Z,1007.7
2018-07-09T04:10:12.226Z,1007.7
2018-07-09T04:11:12.973Z,1007.7
2018-07-09T04:12:13.707Z,1007.7
2018-07-09T04:13:14.420Z,1007.6
2018-07-09T04:14:15.169Z,1007.6
2018-07-09T04:15:15.895Z,1007.7
2018-07-09T04:16:16.632Z,1007.7
2018-07-09T04:17:17.352Z,1007.7
2018-07-09T04:18:18.081Z,1007.7
2018-07-09T04:19:18.815Z,1007.6
2018-07-09T04:20:19.553Z,1007.7
2018-07-09T04:21:20.283Z,1007.7
2018-07-09T04:22:21.070Z,1007.7
2018-07-09T04:23:21.785Z,1007.6
2018-07-09T04:24:22.525Z,1007.6
2018-07-09T04:25:23.253Z,1007.6
2018-07-09T04:26:23.974Z,1007.6
2018-07-09T04:27:25.048Z,1007.6
2018-07-09T04:28:26.021Z,1007.6
2018-07-09T04:29:26.993Z,1007.7
2018-07-09T04:30:27.715Z,1007.7
2018-07-09T04:31:28.689Z,1007.7
2018-07-09T04:32:29.763Z,1007.6
2018-07-09T04:33:30.486Z,1007.7
2018-07-09T04:34:31.213Z,1007.7
2018-07-09T04:35:31.950Z,1007.6
2018-07-09T04:36:32.675Z,1007.6
2018-07-09T04:37:33.398Z,1007.6
2018-07-09T04:38:34.129Z,1007.7
2018-07-09T04:39:34.850Z,1007.7
2018-07-09T04:40:35.589Z,1007.6
2018-07-09T04:41:36.304Z,1007.6
2018-07-09T04:42:37.037Z,1007.6
2018-07-09T04:43:37.763Z,1007.6
2018-07-09T04:44:38.481Z,1007.6
2018-07-09T04:45:39.208Z,1007.6
2018-07-09T04:46:39.939Z,1007.6
2018-07-09T04:47:40.669Z,1007.6
2018-07-09T04:48:41.388Z,1007.6
2018-07-09T04:49:42.139Z,1007.6
2018-07-09T04:50:42.868Z,1007.6
2018-07-09T04:51:43.712Z,1007.6
2018-07-09T04:52:44.450Z,1007.6
2018-07-09T04:53:45.175Z,1007.5
2018-07-09T04:54:45.906Z,1007.5
2018-07-09T04:55:46.628Z,1007.6
2018-07-09T04:56:47.453Z,1007.6
2018-07-09T04:57:48.177Z,1007.6
2018-07-09T04:58:48.913Z,1007.6
2018-07-09T04:59:49.646Z,1007.6
2018-07-09T05:00:50.386Z,1007.6
2018-07-09T05:01:51.255Z,1007.6
2018-07-09T05:02:51.986Z,1007.6
2018-07-09T05:03:52.709Z,1007.6
2018-07-09T05:04:53.452Z,1007.6
2018-07-09T05:05:54.179Z,1007.6
2018-07-09T05:06:54.946Z,1007.6
2018-07-09T05:07:55.676Z,1007.6
2018-07-09T05:08:56.396Z,1007.5
2018-07-09T05:09:57.120Z,1007.5
2018-07-09T05:10:57.847Z,1007.5
2018-07-09T05:11:58.636Z,1007.5
2018-07-09T05:12:59.416Z,1007.5
2018-07-09T05:14:00.097Z,1007.5
2018-07-09T05:15:00.831Z,1007.5
2018-07-09T05:16:01.561Z,1007.5
2018-07-09T05:17:02.294Z,1007.5
2018-07-09T05:18:03.271Z,1007.5
2018-07-09T05:19:04.250Z,1007.5
2018-07-09T05:20:04.964Z,1007.5
2018-07-09T05:21:05.677Z,1007.5
2018-07-09T05:22:06.967Z,1007.5
2018-07-09T05:23:07.772Z,1007.5
2018-07-09T05:24:08.749Z,1007.5
2018-07-09T05:25:09.474Z,1007.4
2018-07-09T05:26:10.215Z,1007.4
2018-07-09T05:27:10.932Z,1007.4
2018-07-09T05:28:11.908Z,1007.4
2018-07-09T05:29:12.698Z,1007.4
2018-07-09T05:30:13.505Z,1007.4
2018-07-09T05:31:14.659Z,1007.4
2018-07-09T05:32:15.888Z,1007.4
2018-07-09T05:33:16.735Z,1007.4
2018-07-09T05:34:17.439Z,1007.4
2018-07-09T05:35:18.695Z,1007.5
2018-07-09T05:36:19.552Z,1007.5
2018-07-09T05:37:20.758Z,1007.5
2018-07-09T05:38:21.506Z,1007.5
2018-07-09T05:39:22.219Z,1007.5
2018-07-09T05:40:23.039Z,1007.5
2018-07-09T05:41:23.859Z,1007.5
2018-07-09T05:42:24.606Z,1007.5
2018-07-09T05:43:25.383Z,1007.5
2018-07-09T05:44:26.108Z,1007.5
2018-07-09T05:45:26.850Z,1007.4
2018-07-09T05:46:27.563Z,1007.5
2018-07-09T05:47:28.313Z,1007.5
2018-07-09T05:48:29.019Z,1007.5
2018-07-09T05:49:29.763Z,1007.5
2018-07-09T05:50:30.495Z,1007.5
2018-07-09T05:51:31.235Z,1007.5
2018-07-09T05:52:31.961Z,1007.5
2018-07-09T05:53:32.692Z,1007.5
2018-07-09T05:54:33.416Z,1007.5
2018-07-09T05:55:34.414Z,1007.5
2018-07-09T05:56:35.145Z,1007.5
2018-07-09T05:57:35.879Z,1007.5
2018-07-09T05:58:36.611Z,1007.5
2018-07-09T05:59:37.337Z,1007.5
2018-07-09T06:00:38.322Z,1007.5
2018-07-09T06:01:39.293Z,1007.5
2018-07-09T06:02:40.040Z,1007.5
2018-07-09T06:03:40.771Z,1007.5
2018-07-09T06:04:41.510Z,1007.6
2018-07-09T06:05:42.241Z,1007.5
2018-07-09T06:06:42.973Z,1007.5
2018-07-09T06:07:43.708Z,1007.5
2018-07-09T06:08:44.793Z,1007.6
2018-07-09T06:09:45.517Z,1007.5
2018-07-09T06:10:46.235Z,1007.5
2018-07-09T06:11:46.964Z,1007.5
2018-07-09T06:12:47.688Z,1007.6
2018-07-09T06:13:48.419Z,1007.6
2018-07-09T06:14:49.162Z,1007.6
2018-07-09T06:15:49.901Z,1007.6
2018-07-09T06:16:50.615Z,1007.6
2018-07-09T06:17:51.348Z,1007.6
2018-07-09T06:18:52.072Z,1007.6
2018-07-09T06:19:52.804Z,1007.6
2018-07-09T06:20:53.833Z,1007.6
2018-07-09T06:21:54.566Z,1007.6
2018-07-09T06:22:55.279Z,1007.6
2018-07-09T06:23:56.034Z,1007.6
2018-07-09T06:24:56.759Z,1007.6
2018-07-09T06:25:57.598Z,1007.6
2018-07-09T06:26:58.333Z,1007.6
2018-07-09T06:27:59.061Z,1007.6
2018-07-09T06:28:59.786Z,1007.6
2018-07-09T06:30:00.528Z,1007.6
2018-07-09T06:31:01.305Z,1007.6
2018-07-09T06:32:02.040Z,1007.6
2018-07-09T06:33:02.782Z,1007.6
2018-07-09T06:34:03.513Z,1007.6
2018-07-09T06:35:04.249Z,1007.6
2018-07-09T06:36:04.986Z,1007.6
2018-07-09T06:37:06.111Z,1007.6
2018-07-09T06:38:06.841Z,1007.6
2018-07-09T06:39:07.573Z,1007.6
2018-07-09T06:40:08.309Z,1007.6
2018-07-09T06:41:09.044Z,1007.6
2018-07-09T06:42:10.123Z,1007.6
2018-07-09T06:43:10.864Z,1007.6
2018-07-09T06:44:11.591Z,1007.6
2018-07-09T06:45:12.317Z,1007.6
2018-07-09T06:46:13.049Z,1007.6
2018-07-09T06:47:13.832Z,1007.7
2018-07-09T06:48:14.587Z,1007.7
2018-07-09T06:49:15.291Z,1007.7
2018-07-09T06:50:16.024Z,1007.7
2018-07-09T06:51:16.761Z,1007.7
2018-07-09T06:52:17.499Z,1007.7
2018-07-09T06:53:18.224Z,1007.7
2018-07-09T06:54:18.957Z,1007.7
2018-07-09T06:55:19.686Z,1007.7
2018-07-09T06:56:20.665Z,1007.7
2018-07-09T06:57:21.396Z,1007.7
2018-07-09T06:58:22.132Z,1007.7
2018-07-09T06:59:22.856Z,1007.7
2018-07-09T07:00:23.587Z,1007.6
2018-07-09T07:01:24.471Z,1007.6
2018-07-09T07:02:25.538Z,1007.6
2018-07-09T07:03:26.181Z,1007.6
2018-07-09T07:04:26.905Z,1007.6
2018-07-09T07:05:27.642Z,1007.6
2018-07-09T07:06:28.764Z,1007.6
2018-07-09T07:07:29.499Z,1007.7
2018-07-09T07:08:30.485Z,1007.6
2018-07-09T07:09:31.232Z,1007.7
2018-07-09T07:10:31.960Z,1007.6
2018-07-09T07:11:33.048Z,1007.6
2018-07-09T07:12:33.792Z,1007.6
2018-07-09T07:13:34.770Z,1007.6
2018-07-09T07:14:35.507Z,1007.6
2018-07-09T07:15:36.227Z,1007.5
2018-07-09T07:16:36.959Z,1007.5
2018-07-09T07:17:37.679Z,1007.5
2018-07-09T07:18:38.414Z,1007.5
2018-07-09T07:19:39.166Z,1007.5
2018-07-09T07:20:39.896Z,1007.4
2018-07-09T07:21:40.641Z,1007.5
2018-07-09T07:22:41.364Z,1007.5
2018-07-09T07:23:42.256Z,1007.5
2018-07-09T07:24:42.985Z,1007.4
2018-07-09T07:25:43.711Z,1007.4
2018-07-09T07:26:44.442Z,1007.4
2018-07-09T07:27:45.188Z,1007.3
2018-07-09T07:28:46.014Z,1007.3
2018-07-09T07:29:46.996Z,1007.3
2018-07-09T07:30:47.719Z,1007.3
2018-07-09T07:31:48.699Z,1007.3
2018-07-09T07:32:49.446Z,1007.2
2018-07-09T07:33:50.158Z,1007.2
2018-07-09T07:34:50.905Z,1007.2
2018-07-09T07:35:51.893Z,1007.2
2018-07-09T07:36:52.638Z,1007.2
2018-07-09T07:37:53.372Z,1007.2
2018-07-09T07:38:54.105Z,1007.2
2018-07-09T07:39:54.833Z,1007.2
2018-07-09T07:40:55.566Z,1007.2
2018-07-09T07:41:56.293Z,1007.1
2018-07-09T07:42:57.032Z,1007.1
2018-07-09T07:43:57.763Z,1007.2
2018-07-09T07:44:58.507Z,1007.1
2018-07-09T07:45:59.223Z,1007.1
2018-07-09T07:46:59.946Z,1007.1
2018-07-09T07:48:00.679Z,1007.1
2018-07-09T07:49:01.507Z,1007.1
2018-07-09T07:50:02.237Z,1007.1
2018-07-09T07:51:02.964Z,1007.1
2018-07-09T07:52:03.695Z,1007.1
2018-07-09T07:53:04.422Z,1007.1
2018-07-09T07:54:05.225Z,1007.1
2018-07-09T07:55:05.955Z,1007.2
2018-07-09T07:56:06.685Z,1007.2
2018-07-09T07:57:07.428Z,1007.2
2018-07-09T07:58:08.157Z,1007.2
2018-07-09T07:59:08.885Z,1007.2
2018-07-09T08:00:09.861Z,1007.2
2018-07-09T08:01:10.622Z,1007.1
2018-07-09T08:02:11.349Z,1007.1
2018-07-09T08:03:12.070Z,1007.1
2018-07-09T08:04:12.796Z,1007.1
2018-07-09T08:05:13.531Z,1007.1
2018-07-09T08:06:14.263Z,1007.1
2018-07-09T08:07:14.986Z,1007.1
2018-07-09T08:08:15.715Z,1007.1
2018-07-09T08:09:16.483Z,1007.1
2018-07-09T08:10:17.182Z,1007.1
2018-07-09T08:11:17.921Z,1007.1
2018-07-09T08:13:29.007Z,1007.0
2018-07-09T08:14:22.010Z,1007.0
2018-07-09T08:15:22.738Z,1007.1
2018-07-09T08:16:23.472Z,1007.1
2018-07-09T08:17:24.204Z,1007.1
2018-07-09T08:18:24.930Z,1007.1
2018-07-09T08:19:25.670Z,1007.2
2018-07-09T08:20:26.395Z,1007.2
2018-07-09T08:21:27.135Z,1007.2
2018-07-09T08:22:27.871Z,1007.1
2018-07-09T08:23:28.619Z,1007.1
2018-07-09T08:24:29.598Z,1007.1
2018-07-09T08:25:30.579Z,1007.2
2018-07-09T08:26:31.074Z,1007.1
2018-07-09T08:27:31.805Z,1007.1
2018-07-09T08:28:32.558Z,1007.1
2018-07-09T08:29:33.285Z,1007.1
2018-07-09T08:30:34.008Z,1007.1
2018-07-09T08:31:34.748Z,1007.1
2018-07-09T08:32:35.472Z,1007.1
2018-07-09T08:33:36.212Z,1007.1
2018-07-09T08:34:37.085Z,1007.1
2018-07-09T08:35:37.814Z,1007.1
2018-07-09T08:36:38.555Z,1007.1
2018-07-09T08:37:39.290Z,1007.0
2018-07-09T08:38:40.025Z,1007.0
2018-07-09T08:39:40.852Z,1007.0
2018-07-09T08:40:41.600Z,1007.0
2018-07-09T08:41:42.333Z,1006.9
2018-07-09T08:42:43.073Z,1006.9
2018-07-09T08:43:43.822Z,1006.9
2018-07-09T08:44:44.815Z,1006.9
2018-07-09T08:45:45.562Z,1006.9
2018-07-09T08:46:46.534Z,1006.9
2018-07-09T08:47:47.264Z,1006.9
2018-07-09T08:48:48.000Z,1006.9
2018-07-09T08:49:48.729Z,1006.9
2018-07-09T08:50:49.522Z,1006.9
2018-07-09T08:51:50.252Z,1006.9
2018-07-09T08:52:51.237Z,1007.0
2018-07-09T08:53:51.973Z,1007.0
2018-07-09T08:54:52.709Z,1007.0
2018-07-09T08:55:53.435Z,1007.0
2018-07-09T08:56:54.180Z,1007.0
2018-07-09T08:57:55.316Z,1007.0
2018-07-09T08:58:56.046Z,1007.0
2018-07-09T08:59:56.784Z,1007.0
2018-07-09T09:00:57.517Z,1007.0
2018-07-09T09:01:58.252Z,1007.0
2018-07-09T09:02:59.401Z,1007.0
2018-07-09T09:04:00.135Z,1007.0
2018-07-09T09:05:00.883Z,1007.0
2018-07-09T09:06:01.630Z,1007.0
2018-07-09T09:07:02.363Z,1007.0
2018-07-09T09:08:03.267Z,1007.0
2018-07-09T09:09:04.000Z,1007.0
2018-07-09T09:10:04.777Z,1006.9
2018-07-09T09:11:05.471Z,1007.0
2018-07-09T09:12:06.210Z,1007.0
2018-07-09T09:13:07.042Z,1007.0
2018-07-09T09:14:07.785Z,1006.9
2018-07-09T09:15:08.511Z,1006.9
2018-07-09T09:16:09.240Z,1006.9
2018-07-09T09:17:09.994Z,1006.9
2018-07-09T09:18:10.821Z,1007.0
2018-07-09T09:19:11.795Z,1007.0
2018-07-09T09:20:12.533Z,1006.9
2018-07-09T09:21:13.267Z,1006.9
2018-07-09T09:22:14.005Z,1007.0
2018-07-09T09:23:14.737Z,1006.9
2018-07-09T09:24:15.473Z,1006.9
2018-07-09T09:25:16.207Z,1006.9
2018-07-09T09:26:16.938Z,1006.9
2018-07-09T09:27:17.916Z,1006.9
2018-07-09T09:28:18.896Z,1006.8
2018-07-09T09:29:19.653Z,1006.9
2018-07-09T09:30:20.408Z,1006.8
2018-07-09T09:31:21.246Z,1006.8
2018-07-09T09:32:21.871Z,1006.8
2018-07-09T09:33:22.858Z,1006.8
2018-07-09T09:34:23.608Z,1006.8
2018-07-09T09:35:24.353Z,1006.8
2018-07-09T09:36:25.099Z,1006.8
2018-07-09T09:37:25.868Z,1006.8
2018-07-09T09:38:26.570Z,1006.8
2018-07-09T09:39:27.304Z,1006.8
2018-07-09T09:40:28.042Z,1006.8
2018-07-09T09:41:28.767Z,1006.8
2018-07-09T09:42:29.506Z,1006.8
2018-07-09T09:43:30.232Z,1006.8
2018-07-09T09:44:31.061Z,1006.8
2018-07-09T09:45:31.796Z,1006.8
2018-07-09T09:46:32.526Z,1006.8
2018-07-09T09:47:33.256Z,1006.7
2018-07-09T09:48:33.989Z,1006.8
2018-07-09T09:49:34.819Z,1006.8
2018-07-09T09:50:35.548Z,1006.8
2018-07-09T09:51:36.280Z,1006.8
2018-07-09T09:52:37.010Z,1006.8
2018-07-09T09:53:37.742Z,1006.8
2018-07-09T09:54:38.470Z,1006.8
2018-07-09T09:55:39.445Z,1006.8
2018-07-09T09:56:40.177Z,1006.8
2018-07-09T09:57:40.909Z,1006.8
2018-07-09T09:58:41.644Z,1006.8
2018-07-09T09:59:42.378Z,1006.8
2018-07-09T10:00:43.160Z,1006.8
2018-07-09T10:01:43.845Z,1006.8
2018-07-09T10:02:44.584Z,1006.8
2018-07-09T10:03:45.316Z,1006.8
2018-07-09T10:04:46.061Z,1006.8
2018-07-09T10:05:46.785Z,1006.8
2018-07-09T10:06:47.513Z,1006.8
2018-07-09T10:07:48.502Z,1006.8
2018-07-09T10:08:49.232Z,1006.8
2018-07-09T10:09:49.956Z,1006.8
2018-07-09T10:10:50.679Z,1006.8
2018-07-09T10:11:51.473Z,1006.8
2018-07-09T10:12:52.208Z,1006.8
2018-07-09T10:13:52.944Z,1006.8
2018-07-09T10:14:53.672Z,1006.8
2018-07-09T10:15:54.417Z,1006.8
2018-07-09T10:16:55.193Z,1006.8
2018-07-09T10:17:55.894Z,1006.8
2018-07-09T10:18:56.627Z,1006.9
2018-07-09T10:19:57.365Z,1006.9
2018-07-09T10:20:58.114Z,1006.9
2018-07-09T10:21:58.839Z,1006.9
2018-07-09T10:22:59.652Z,1006.9
2018-07-09T10:24:00.325Z,1006.9
2018-07-09T10:25:01.166Z,1006.9
2018-07-09T10:26:01.893Z,1006.9
2018-07-09T10:27:02.629Z,1006.8
2018-07-09T10:28:03.360Z,1006.8
2018-07-09T10:29:04.099Z,1006.8
2018-07-09T10:30:04.875Z,1006.8
2018-07-09T10:31:05.603Z,1006.8
2018-07-09T10:32:06.329Z,1006.8
2018-07-09T10:33:07.054Z,1006.8
2018-07-09T10:34:07.786Z,1006.7
2018-07-09T10:35:08.606Z,1006.7
2018-07-09T10:36:09.343Z,1006.8
2018-07-09T10:37:10.086Z,1006.8
2018-07-09T10:38:10.817Z,1006.8
2018-07-09T10:39:11.551Z,1006.8
2018-07-09T10:40:12.520Z,1006.8
2018-07-09T10:41:13.256Z,1006.8
2018-07-09T10:42:13.983Z,1006.8
2018-07-09T10:43:14.725Z,1006.9
2018-07-09T10:44:15.462Z,1006.9
2018-07-09T10:45:16.193Z,1006.9
2018-07-09T10:46:16.917Z,1006.9
2018-07-09T10:47:17.661Z,1006.9
2018-07-09T10:48:18.687Z,1006.8
2018-07-09T10:49:19.430Z,1006.9
2018-07-09T10:50:20.156Z,1006.9
2018-07-09T10:51:20.900Z,1006.9
2018-07-09T10:52:21.645Z,1006.9
2018-07-09T10:53:22.478Z,1006.8
2018-07-09T10:54:23.462Z,1006.8
2018-07-09T10:55:24.192Z,1006.8
2018-07-09T10:56:24.935Z,1006.9
2018-07-09T10:57:25.671Z,1006.8
2018-07-09T10:58:26.550Z,1006.8
2018-07-09T10:59:27.295Z,1006.8
2018-07-09T11:00:28.021Z,1006.8
2018-07-09T11:01:28.753Z,1006.7
2018-07-09T11:02:29.476Z,1006.7
2018-07-09T11:03:30.210Z,1006.7
2018-07-09T11:04:31.003Z,1006.7
2018-07-09T11:05:31.727Z,1006.7
2018-07-09T11:06:32.468Z,1006.7
2018-07-09T11:07:33.187Z,1006.7
2018-07-09T11:08:33.919Z,1006.7
2018-07-09T11:09:34.790Z,1006.6
2018-07-09T11:10:35.500Z,1006.7
2018-07-09T11:11:36.232Z,1006.6
2018-07-09T11:12:36.970Z,1006.6
2018-07-09T11:13:37.718Z,1006.6
2018-07-09T11:14:38.446Z,1006.6
2018-07-09T11:15:39.233Z,1006.6
2018-07-09T11:16:39.969Z,1006.6
2018-07-09T11:17:40.709Z,1006.6
2018-07-09T11:18:41.438Z,1006.6
2018-07-09T11:19:42.176Z,1006.5
2018-07-09T11:20:42.919Z,1006.6
2018-07-09T11:21:43.680Z,1006.5
2018-07-09T11:22:44.386Z,1006.5
2018-07-09T11:23:45.364Z,1006.5
2018-07-09T11:24:46.112Z,1006.5
2018-07-09T11:25:46.833Z,1006.5
2018-07-09T11:26:47.568Z,1006.5
2018-07-09T11:27:48.301Z,1006.5
2018-07-09T11:28:49.276Z,1006.5
2018-07-09T11:29:50.022Z,1006.5
2018-07-09T11:30:50.759Z,1006.5
2018-07-09T11:31:52.133Z,1006.5
2018-07-09T11:32:52.867Z,1006.4
2018-07-09T11:33:53.609Z,1006.4
2018-07-09T11:34:54.337Z,1006.4
2018-07-09T11:35:55.111Z,1006.4
2018-07-09T11:36:55.809Z,1006.4
2018-07-09T11:37:56.544Z,1006.4
2018-07-09T11:38:57.273Z,1006.4
2018-07-09T11:39:58.009Z,1006.4
2018-07-09T11:40:58.742Z,1006.4
2018-07-09T11:41:59.487Z,1006.4
2018-07-09T11:43:00.569Z,1006.4
2018-07-09T11:44:01.307Z,1006.4
2018-07-09T11:45:02.300Z,1006.4
2018-07-09T11:46:03.030Z,1006.3
2018-07-09T11:47:03.758Z,1006.3
2018-07-09T11:48:04.495Z,1006.3
2018-07-09T11:49:05.219Z,1006.3
2018-07-09T11:50:05.946Z,1006.3
2018-07-09T11:51:06.692Z,1006.3
2018-07-09T11:52:07.480Z,1006.2
2018-07-09T11:53:08.170Z,1006.2
2018-07-09T11:54:08.909Z,1006.3
2018-07-09T11:55:09.651Z,1006.2
2018-07-09T11:56:10.384Z,1006.2
2018-07-09T11:57:11.123Z,1006.2
2018-07-09T11:58:11.847Z,1006.2
2018-07-09T11:59:12.588Z,1006.1
2018-07-09T12:00:13.313Z,1006.2
2018-07-09T12:01:14.292Z,1006.2
2018-07-09T12:02:15.126Z,1006.1
2018-07-09T12:03:15.858Z,1006.1
2018-07-09T12:04:16.839Z,1006.1
2018-07-09T12:05:17.578Z,1006.1
2018-07-09T12:06:18.300Z,1006.1
2018-07-09T12:07:19.045Z,1006.1
2018-07-09T12:08:19.788Z,1006.1
2018-07-09T12:09:20.528Z,1006.0
2018-07-09T12:10:21.258Z,1006.0
2018-07-09T12:11:22.004Z,1006.0
2018-07-09T12:12:23.107Z,1006.0
2018-07-09T12:13:23.841Z,1006.0
2018-07-09T12:14:24.575Z,1006.1
2018-07-09T12:15:25.305Z,1006.1
2018-07-09T12:16:26.048Z,1006.0
2018-07-09T12:17:27.125Z,1006.0
2018-07-09T12:18:27.852Z,1006.0
2018-07-09T12:19:28.595Z,1006.0
2018-07-09T12:20:29.327Z,1006.0
2018-07-09T12:21:30.073Z,1006.0
2018-07-09T12:22:31.145Z,1006.0
2018-07-09T12:23:31.874Z,1006.0
2018-07-09T12:24:32.606Z,1006.0
2018-07-09T12:25:33.609Z,1006.0
2018-07-09T12:26:34.335Z,1006.0
2018-07-09T12:27:35.290Z,1006.0
2018-07-09T12:28:36.042Z,1006.0
2018-07-09T12:29:36.771Z,1005.9
2018-07-09T12:30:37.499Z,1005.9
2018-07-09T12:31:38.228Z,1005.9
2018-07-09T12:32:38.971Z,1005.9
2018-07-09T12:33:39.759Z,1006.0
2018-07-09T12:34:40.488Z,1005.9
2018-07-09T12:35:41.231Z,1005.9
2018-07-09T12:36:41.961Z,1006.0
2018-07-09T12:37:42.692Z,1006.0
2018-07-09T12:38:43.476Z,1005.9